Crestwood, KY

4:06 AM EST on March 06, 2015 (GMT -0500)
Lockwood Estates | Change Station
CLOSE
Current Station
Personal Weather Station
Location: Crestwood, KY
Elevation: 758 ft
Nearby Weather Stations
Active Advisory: Flood Warning Active Notice: Record Report

Elev 758 ft 38.35 °N, 85.43 °W | Updated 6 seconds ago

Partly Cloudy
Partly Cloudy
1.0 °F
Feels Like 1 °F
N
0.0
Wind Variable Wind from ESE
Gusts 0.0 mph

Today
High -- | Low -- °F
--% Chance of Precip.
Yesterday
High -- | Low -- °F
Precip. -- in
7:06 AM 6:39 PM
Full, 100% visible
Pressure 30.56 in
Visibility 7.0 miles
Clouds Clear
Windchill 1 °F
Dew Point -2 °F
Humidity 87%
Rainfall in
Snow Depth Not available.
UV 0 out of 12
Pollen .80 out of 12
Air Quality Not available.
Flu Activity Not available.
METAR KLOU 060853Z 00000KT 7SM CLR M13/M16 A3056

More Conditions Fewer Conditions

Pressure 30.56 in
Visibility 7.0 miles
Clouds Clear
Windchill 1 °F
Dew Point -2 °F
Humidity 87%
Rainfall in
Snow Depth Not available.
UV 0 out of 12
Pollen .80 out of 12
Air Quality Not available.
Flu Activity Not available.
METAR KLOU 060853Z 00000KT 7SM CLR M13/M16 A3056

More Conditions Fewer Conditions

10-Day Weather Forecast

Almanac

Astronomy

Mar. 06, 2015 Rise Set
Actual Time
Civil Twilight
Nautical Twilight
Astronomical Twilight
Moon
Length of Visible Light
Length of Day
Tomorrow will be .
, % of the Moon is Illuminated

Today's Extremes

State Highs State Lows

Community

WunderPhotos

Upload Photos

1,803,212 photos uploaded!

WunderBlogs® & News

Nearby

Air Quality

  Air Quality AQ Index Pollutant
Not available.

Snow Depth

Station Depth Elevation

Earthquake Activity

City Distance Mag. Time & Date
Minimum magnitude displayed is 2.5.

Coastal Water Temperatures

Place Temperature

Nearby Weather Stations

Flood Warning
Statement as of 11:13 PM EST on March 05, 2015

The Flood Warning continues for
the Ohio River at McAlpine upper.
* From Sunday afternoon until further notice.
* At 11:00 PM Thursday the stage was 17.3 feet.
* Flood stage is 23.0 feet.
* Minor flooding is forecast.
* Forecast... rise above flood stage by Sunday afternoon and continue
to rise to near 25.0 feet by early Tuesday morning.
* Impact... at 24.5 feet... waldoah beach and Transylvania Beach areas
are cut off. River Road near Indian HIlls trail floods. Adams St.
And Witherspoon Rd. Closes.
* Flood history... this crest compares to a previous crest of 24.8
feet on may 22 1995.


Lat... Lon 3863 8551 3844 8564 3831 8580 3824 8568
      3836 8556 3858 8539